^^

Metar (rayon 200 km actualisée toutes les 30 minutes)






LFBU - Brie/Champniers, France
Distance de la station: SSE 07km
Mise à jour: 20/04/2014 19:00
Pas à jour
Couvert
Couvert
 Wind from SSE
Vent: SSE 13 km/h
Température: 12°C
Point de Rosée: 7°C
Humidité: 72%
Baromètre: 1003 hPa
Nuages: Couvert
Visibilité: 10 km
Nuages details: partiellement nuageux 549 m
nuageux 2316 m
Couvert 3353 m
2014/04/20 17:00 LFBU 201700Z AUTO 16007KT 130V200 9999 SCT018 BKN076 OVC110 12/07 Q1003
LFBG - Cognac/Chateaubernard, France
Distance de la station: OSO 35km
Mise à jour: 21/04/2014 01:30
partiellement nuageux
partiellement nuageux
 Wind from calm
Vent: Vent calme
Température: 10°C
Point de Rosée: 8°C
Humidité: 88%
Baromètre: 1004 hPa
Nuages: partiellement nuageux
Visibilité: 10 km
2014/04/20 23:30 LFBG 202330Z AUTO 00000KT 9999 NSC 10/08 Q1004
 
LFBL - Limoges/Bellegarde, France
Distance de la station: E 82km
Mise à jour: 21/04/2014 01:30
Broulliard
Broulliard
 Wind from SSE
Vent: SSE 11 km/h
Température: 8°C
Wind Chill: 6°C
Point de Rosée: 7°C
Humidité: 93%
Baromètre: 1005 hPa
Récapitulatifs: Broulliard
Visibilité: 3 km
2014/04/20 23:30 LFBL 202330Z AUTO 15006KT 2600 BR VV/// 08/07 Q1005
LFBI - Poitiers/France
Distance de la station: N 93km
Mise à jour: 21/04/2014 01:30
partiellement nuageux
partiellement nuageux
 Wind from S
Vent: S 9 km/h
Température: 10°C
Wind Chill: 9°C
Point de Rosée: 7°C
Humidité: 82%
Baromètre: 1004 hPa
Nuages: partiellement nuageux
Visibilité: 10 km
2014/04/20 23:30 LFBI 202330Z AUTO 18005KT 9999 NSC 10/07 Q1004
 
LFBH - La Rochelle/France
Distance de la station: ONO 106km
Mise à jour: 21/04/2014 01:30
partiellement nuageux
partiellement nuageux
 Wind from N
Vent: N 6 km/h
Température: 10°C
Point de Rosée: 6°C
Humidité: 76%
Baromètre: 1004 hPa
Nuages: partiellement nuageux
Visibilité: 10 km
2014/04/20 23:30 LFBH 202330Z AUTO 01003KT 9999 NSC 10/06 Q1004
LFBE - Bergerac/France
Distance de la station: SSE 107km
Mise à jour: 21/04/2014 01:30
Broulliard, Couvert
Broulliard, Couvert
 Wind from E
Vent: E 6 km/h
Température: 10°C
Point de Rosée: 9°C
Humidité: 94%
Baromètre: 1005 hPa
Récapitulatifs: Broulliard
Nuages: Couvert
Visibilité: 4 km
Nuages details: nuageux 274 m
Couvert 2926 m
2014/04/20 23:30 LFBE 202330Z AUTO 08003KT 4100 BR BKN009 OVC096 10/09 Q1005
 
LFBD - Bordeaux/France
Distance de la station: SSO 121km
Mise à jour: 21/04/2014 01:30
nuageux
nuageux
 Wind from calm
Vent: Vent calme
Température: 11°C
Point de Rosée: 6°C
Humidité: 72%
Baromètre: 1005 hPa
Nuages: nuageux
Visibilité: 10 km
Nuages details: partiellement nuageux 1402 m
nuageux 2804 m
nuageux 3353 m
2014/04/20 23:30 LFBD 202330Z AUTO 00000KT 9999 SCT046 BKN092 BKN110 11/06 Q1005
LFRI - La Roche-sur-Yon/France
Distance de la station: NO 156km
Mise à jour: 21/04/2014 01:30
partiellement nuageux
partiellement nuageux
 Wind from ENE
Vent: ENE 6 km/h
Température: 4°C
Point de Rosée: 3°C
Humidité: 93%
Baromètre: 1004 hPa
Nuages: partiellement nuageux
Visibilité: 6 km
2014/04/20 23:30 LFRI 202330Z AUTO 07003KT 6000 NSC 04/03 Q1004
 
LFBC - Cazaux/France
Distance de la station: SO 167km
Mise à jour: 21/04/2014 01:30
partiellement nuageux
partiellement nuageux
 Wind from SE
Vent: SE 6 km/h
Température: 8°C
Point de Rosée: 6°C
Humidité: 87%
Baromètre: 1004 hPa
Nuages: partiellement nuageux
Visibilité: 7 km
2014/04/20 23:30 LFBC 202330Z AUTO 14003KT 7000 NSC 08/06 Q1004
LFLX - Chateauroux/France
Distance de la station: NE 174km
Mise à jour: 21/04/2014 01:30
Couvert
Couvert
 Wind from S
Vent: S 7 km/h
Température: 10°C
Wind Chill: 9°C
Point de Rosée: 8°C
Humidité: 88%
Baromètre: 1005 hPa
Nuages: Couvert
Visibilité: 10 km
Nuages details: Quelques Nuages 1036 m
nuageux 1829 m
Couvert 2438 m
2014/04/20 23:30 LFLX 202330Z AUTO 18004KT 9999 FEW034 BKN060 OVC080 10/08 Q1005
 
LFBA - Agen/France
Distance de la station: SSE 179km
Mise à jour: 21/04/2014 01:30
Broulliard, Couvert
Broulliard, Couvert
 Wind from E
Vent: E 7 km/h
Température: 9°C
Wind Chill: 8°C
Point de Rosée: 9°C
Humidité: 100%
Baromètre: 1005 hPa
Récapitulatifs: Broulliard
Nuages: Couvert
Visibilité: 4 km
Nuages details: Couvert 122 m
2014/04/20 23:30 LFBA 202330Z AUTO 10004KT 4300 BR OVC004 09/09 Q1005